Time;durP1;ratioP1;P1;durP2;ratioP2;P2;SDS_P1;SDS_P2;PMS_P1;PMS_P2;Temp;Humidity;BMP_temperature;BMP_pressure;BME280_temperature;BME280_humidity;BME280_pressure;Samples;Min_cycle;Max_cycle;Signal;HPM_P1;HPM_P2
2022/01/15 00:01:41;;;;;;;93.25;33.03;;;;;;;;;;5027154;28;20506;-77
2022/01/15 00:04:07;;;;;;;91.28;30.77;;;;;;;;;;5026480;28;20108;-78
2022/01/15 00:06:33;;;;;;;87.65;30.38;;;;;;;;;;5028142;28;20032;-79
2022/01/15 00:09:00;;;;;;;86.07;30.33;;;;;;;;;;5026507;28;20426;-78
2022/01/15 00:11:27;;;;;;;87.25;29.88;;;;;;;;;;5027974;28;20781;-77
2022/01/15 00:13:57;;;;;;;105.18;32.25;;;;;;;;;;5028471;28;20129;-77
2022/01/15 00:16:44;;;;;;;;;;;;;;;;;;5028460;28;20056;-78
2022/01/15 00:19:13;;;;;;;98.65;32.17;;;;;;;;;;5027893;28;19963;-77
2022/01/15 00:21:39;;;;;;;100.28;31.70;;;;;;;;;;5026203;28;20013;-77
2022/01/15 00:24:05;;;;;;;115.93;32.75;;;;;;;;;;5027725;28;20026;-77
2022/01/15 00:26:32;;;;;;;200.75;36.53;;;;;;;;;;5027461;28;20152;-77
2022/01/15 00:28:58;;;;;;;153.23;34.65;;;;;;;;;;5027854;28;20112;-77
2022/01/15 00:31:24;;;;;;;168.38;34.60;;;;;;;;;;5028187;28;20175;-77
2022/01/15 00:33:53;;;;;;;110.25;33.55;;;;;;;;;;5028155;28;20075;-78
2022/01/15 00:36:19;;;;;;;110.82;34.00;;;;;;;;;;5027694;28;20662;-77
2022/01/15 00:38:45;;;;;;;178.57;36.35;;;;;;;;;;5027532;28;20045;-77
2022/01/15 00:41:12;;;;;;;235.38;38.60;;;;;;;;;;5028284;28;20029;-78
2022/01/15 00:43:38;;;;;;;314.83;41.38;;;;;;;;;;5027307;28;20415;-77
2022/01/15 00:46:04;;;;;;;142.23;37.50;;;;;;;;;;5027972;28;20033;-78
2022/01/15 00:48:30;;;;;;;117.97;33.42;;;;;;;;;;5027611;28;20391;-76
2022/01/15 00:50:56;;;;;;;147.35;35.42;;;;;;;;;;5027827;28;20102;-77
2022/01/15 00:53:22;;;;;;;102.93;31.60;;;;;;;;;;5027479;28;20056;-77
2022/01/15 00:55:48;;;;;;;87.63;28.80;;;;;;;;;;5026399;28;20022;-78
2022/01/15 00:58:14;;;;;;;97.18;30.23;;;;;;;;;;5027582;28;20072;-77
2022/01/15 01:00:40;;;;;;;87.35;30.65;;;;;;;;;;5027574;28;20105;-76
2022/01/15 01:03:06;;;;;;;89.40;27.00;;;;;;;;;;5027979;28;20118;-78
2022/01/15 01:05:32;;;;;;;94.32;26.90;;;;;;;;;;5027960;28;20060;-78
2022/01/15 01:07:58;;;;;;;95.07;29.70;;;;;;;;;;5027369;28;20109;-78
2022/01/15 01:13:15;;;;;;;249.57;38.50;;;;;;;;;;5027683;28;20544;-77
2022/01/15 01:20:04;;;;;;;124.43;31.15;;;;;;;;;;5027671;28;19916;-77
2022/01/15 01:22:51;;;;;;;136.52;34.40;;;;;;;;;;5027742;28;20104;-77
2022/01/15 01:24:14;;;;;;;127.25;33.42;;;;;;;;;;5018160;28;20403;-78
2022/01/15 01:26:49;;;;;;;112.53;31.13;;;;;;;;;;5030834;28;20028;-77
2022/01/15 01:31:55;;;;;;;93.20;28.55;;;;;;;;;;5031001;28;20109;-77
2022/01/15 01:34:24;;;;;;;;;;;;;;;;;;5031287;28;20026;-77
2022/01/15 01:37:02;;;;;;;81.97;25.20;;;;;;;;;;5030503;28;20434;-77
2022/01/15 01:44:40;;;;;;;116.97;28.65;;;;;;;;;;5030518;28;20040;-77
2022/01/15 01:47:16;;;;;;;136.82;31.25;;;;;;;;;;5030801;28;20033;-77
2022/01/15 01:49:42;;;;;;;125.72;30.23;;;;;;;;;;5030716;28;20018;-77
2022/01/15 01:52:08;;;;;;;125.03;30.65;;;;;;;;;;5029997;28;20106;-77
2022/01/15 01:54:35;;;;;;;119.78;31.17;;;;;;;;;;5030003;28;20049;-77
2022/01/15 01:57:01;;;;;;;88.28;27.55;;;;;;;;;;5030573;28;20048;-78
2022/01/15 01:59:27;;;;;;;88.60;25.52;;;;;;;;;;5030027;28;20117;-78
2022/01/15 02:01:53;;;;;;;79.93;24.58;;;;;;;;;;5030267;28;20523;-78
2022/01/15 02:04:20;;;;;;;76.60;23.90;;;;;;;;;;5028908;28;20028;-79
2022/01/15 02:06:47;;;;;;;83.20;25.30;;;;;;;;;;5030073;28;20459;-78
2022/01/15 02:09:16;;;;;;;96.13;24.85;;;;;;;;;;5030283;28;20476;-78
2022/01/15 02:11:43;;;;;;;80.87;25.43;;;;;;;;;;5028886;28;20017;-78
2022/01/15 02:14:09;;;;;;;79.55;24.10;;;;;;;;;;5030173;28;20272;-78
2022/01/15 02:16:36;;;;;;;83.93;24.27;;;;;;;;;;5029868;28;20871;-77
2022/01/15 02:19:02;;;;;;;88.05;24.42;;;;;;;;;;5030615;28;20677;-77
2022/01/15 02:24:13;;;;;;;60.08;19.38;;;;;;;;;;5010230;28;20032;-78
2022/01/15 02:26:39;;;;;;;59.58;21.30;;;;;;;;;;5025856;28;20100;-77
2022/01/15 02:29:10;;;;;;;59.33;18.83;;;;;;;;;;5029902;28;20064;-78
2022/01/15 02:31:37;;;;;;;69.80;21.63;;;;;;;;;;5029499;28;20568;-78
2022/01/15 02:34:04;;;;;;;67.32;21.25;;;;;;;;;;5029952;28;20109;-78
2022/01/15 02:36:33;;;;;;;58.05;18.42;;;;;;;;;;5029651;28;20057;-78
2022/01/15 02:39:00;;;;;;;68.63;19.58;;;;;;;;;;5029159;28;20060;-77
2022/01/15 02:41:33;;;;;;;67.80;21.52;;;;;;;;;;5029659;28;20044;-78
2022/01/15 02:44:06;;;;;;;72.63;23.83;;;;;;;;;;5029194;28;20084;-78
2022/01/15 02:49:02;;;;;;;66.53;20.08;;;;;;;;;;5028999;28;20040;-77
2022/01/15 02:51:30;;;;;;;65.65;19.90;;;;;;;;;;5029426;28;20055;-78
2022/01/15 02:53:56;;;;;;;59.25;20.33;;;;;;;;;;5029532;28;20053;-78
2022/01/15 02:56:24;;;;;;;52.53;19.00;;;;;;;;;;5029468;28;20445;-78
2022/01/15 02:58:50;;;;;;;51.90;18.10;;;;;;;;;;5028529;28;20065;-78
2022/01/15 03:01:16;;;;;;;56.13;18.92;;;;;;;;;;5029082;28;20113;-78
2022/01/15 03:03:43;;;;;;;54.08;18.02;;;;;;;;;;5029426;28;20064;-78
2022/01/15 03:06:13;;;;;;;43.92;15.45;;;;;;;;;;5027430;28;20036;-79
2022/01/15 03:08:43;;;;;;;51.05;17.55;;;;;;;;;;5026559;28;20030;-79
2022/01/15 03:11:09;;;;;;;46.20;16.08;;;;;;;;;;5029149;28;20063;-78
2022/01/15 03:13:37;;;;;;;46.85;16.10;;;;;;;;;;5028784;28;20076;-79
2022/01/15 03:16:04;;;;;;;51.90;16.88;;;;;;;;;;5029471;28;20853;-79
2022/01/15 03:18:30;;;;;;;53.60;17.25;;;;;;;;;;5028276;28;20021;-78
2022/01/15 03:20:56;;;;;;;57.47;18.35;;;;;;;;;;5028983;28;20152;-78
2022/01/15 03:23:22;;;;;;;55.15;19.67;;;;;;;;;;5028179;28;20037;-78
2022/01/15 03:25:48;;;;;;;56.78;19.35;;;;;;;;;;5028501;28;20104;-78
2022/01/15 03:28:14;;;;;;;58.50;19.42;;;;;;;;;;5028624;28;20025;-78
2022/01/15 03:30:40;;;;;;;61.38;18.38;;;;;;;;;;5029024;28;20117;-78
2022/01/15 03:33:07;;;;;;;54.80;17.95;;;;;;;;;;5028427;28;20184;-77
2022/01/15 03:35:33;;;;;;;68.53;20.45;;;;;;;;;;5028531;28;20025;-77
2022/01/15 03:37:59;;;;;;;57.35;18.55;;;;;;;;;;5027847;28;20079;-77
2022/01/15 03:40:26;;;;;;;58.35;18.75;;;;;;;;;;5028581;28;20045;-78
2022/01/15 03:42:52;;;;;;;58.83;20.13;;;;;;;;;;5027459;28;20052;-77
2022/01/15 03:45:18;;;;;;;63.38;19.83;;;;;;;;;;5028493;28;20053;-78
2022/01/15 03:47:45;;;;;;;48.38;15.55;;;;;;;;;;5027689;28;20112;-78
2022/01/15 03:50:11;;;;;;;44.92;15.10;;;;;;;;;;5027954;28;20022;-78
2022/01/15 03:52:40;;;;;;;40.80;14.20;;;;;;;;;;5027365;28;20048;-78
2022/01/15 03:55:07;;;;;;;48.35;16.38;;;;;;;;;;5027846;28;20585;-77
2022/01/15 03:57:33;;;;;;;48.47;16.00;;;;;;;;;;5027020;28;20021;-79
2022/01/15 04:00:00;;;;;;;38.92;14.07;;;;;;;;;;5027948;28;20200;-77
2022/01/15 04:02:28;;;;;;;46.05;16.58;;;;;;;;;;5028165;28;20864;-79
2022/01/15 04:04:54;;;;;;;47.80;15.60;;;;;;;;;;5028204;28;20025;-78
2022/01/15 04:07:20;;;;;;;49.72;18.38;;;;;;;;;;5027542;28;20072;-78
2022/01/15 04:09:46;;;;;;;46.40;18.02;;;;;;;;;;5027377;28;20140;-77
2022/01/15 04:12:12;;;;;;;48.33;18.08;;;;;;;;;;5028346;28;20029;-78
2022/01/15 04:14:38;;;;;;;47.17;16.65;;;;;;;;;;5027931;28;20448;-78
2022/01/15 04:17:04;;;;;;;47.38;17.20;;;;;;;;;;5028255;28;20488;-78
2022/01/15 04:19:32;;;;;;;34.00;15.05;;;;;;;;;;5027945;28;20041;-77
2022/01/15 04:21:58;;;;;;;36.10;14.88;;;;;;;;;;5027957;28;20017;-77
2022/01/15 04:24:24;;;;;;;48.95;16.75;;;;;;;;;;5027926;28;20136;-77
2022/01/15 04:26:50;;;;;;;50.17;19.40;;;;;;;;;;5027872;28;20029;-78
2022/01/15 04:29:17;;;;;;;43.83;18.58;;;;;;;;;;5028379;28;20091;-77
2022/01/15 04:31:51;;;;;;;50.13;19.35;;;;;;;;;;5027942;28;20021;-78
2022/01/15 04:34:21;;;;;;;57.28;22.23;;;;;;;;;;5027868;28;20515;-78
2022/01/15 04:36:48;;;;;;;50.25;20.73;;;;;;;;;;5027508;28;20356;-78
2022/01/15 04:39:15;;;;;;;56.47;22.60;;;;;;;;;;5027590;28;20041;-78
2022/01/15 04:41:41;;;;;;;67.68;23.17;;;;;;;;;;5027200;28;20113;-79
2022/01/15 04:44:08;;;;;;;64.05;23.25;;;;;;;;;;5027630;28;20060;-78
2022/01/15 04:46:35;;;;;;;54.42;21.40;;;;;;;;;;5026043;28;20432;-78
2022/01/15 04:49:01;;;;;;;52.05;20.58;;;;;;;;;;5027782;28;20140;-77
2022/01/15 04:51:27;;;;;;;51.78;21.77;;;;;;;;;;5027919;28;20393;-79
2022/01/15 04:53:53;;;;;;;60.00;24.83;;;;;;;;;;5028130;28;20078;-78
2022/01/15 04:56:19;;;;;;;60.88;24.48;;;;;;;;;;5027937;28;20021;-78
2022/01/15 04:58:45;;;;;;;59.03;25.17;;;;;;;;;;5031074;28;20026;-78
2022/01/15 05:01:11;;;;;;;58.80;24.08;;;;;;;;;;5031310;28;20555;-78
2022/01/15 05:03:37;;;;;;;81.22;26.10;;;;;;;;;;5031999;28;20036;-78
2022/01/15 05:06:03;;;;;;;65.82;27.90;;;;;;;;;;5031310;28;20572;-79
2022/01/15 05:08:29;;;;;;;72.45;26.50;;;;;;;;;;5030824;28;20052;-81
2022/01/15 05:10:59;;;;;;;73.82;27.63;;;;;;;;;;5031518;28;20579;-81
2022/01/15 05:13:29;;;;;;;93.82;28.92;;;;;;;;;;5028315;28;20466;-80
2022/01/15 05:27:43;;;;;;;76.93;26.77;;;;;;;;;;4963456;28;20094;-82
2022/01/15 05:30:10;;;;;;;98.30;27.92;;;;;;;;;;5008683;28;20046;-81
2022/01/15 05:32:36;;;;;;;108.15;29.80;;;;;;;;;;5026931;28;20125;-80
2022/01/15 05:35:02;;;;;;;146.23;30.42;;;;;;;;;;5013864;28;20026;-80
2022/01/15 05:51:37;;;;;;;132.35;34.75;;;;;;;;;;5677893;23;20067;-80
2022/01/15 05:54:03;;;;;;;166.80;34.78;;;;;;;;;;4947941;29;20028;-80
2022/01/15 05:56:30;;;;;;;191.02;36.67;;;;;;;;;;4954381;29;20031;-81
2022/01/15 05:58:56;;;;;;;187.20;37.60;;;;;;;;;;4946207;29;20872;-80
2022/01/15 06:01:22;;;;;;;157.85;33.00;;;;;;;;;;4950753;29;20062;-79
2022/01/15 06:03:48;;;;;;;136.65;32.90;;;;;;;;;;4929181;29;20719;-78
2022/01/15 06:06:14;;;;;;;228.70;33.92;;;;;;;;;;4951978;29;20031;-81
2022/01/15 06:08:40;;;;;;;135.25;31.02;;;;;;;;;;4951361;28;20027;-80
2022/01/15 06:11:06;;;;;;;149.02;34.67;;;;;;;;;;4934435;29;20750;-79
2022/01/15 06:13:33;;;;;;;339.77;41.50;;;;;;;;;;4949691;29;20054;-79
2022/01/15 06:15:59;;;;;;;124.00;28.58;;;;;;;;;;4951169;29;20607;-81
2022/01/15 06:18:27;;;;;;;131.70;28.33;;;;;;;;;;4953271;29;20062;-83
2022/01/15 06:20:54;;;;;;;97.40;24.70;;;;;;;;;;4959895;29;20042;-83
2022/01/15 06:23:20;;;;;;;53.45;19.48;;;;;;;;;;4965180;28;20477;-84
2022/01/15 06:25:46;;;;;;;84.97;25.52;;;;;;;;;;4933792;29;20041;-76
2022/01/15 06:28:12;;;;;;;89.20;25.45;;;;;;;;;;4931581;29;20059;-77
2022/01/15 06:30:38;;;;;;;165.02;31.80;;;;;;;;;;4948350;29;20114;-77
2022/01/15 06:33:04;;;;;;;149.20;26.33;;;;;;;;;;4948870;29;20441;-79
2022/01/15 06:35:30;;;;;;;94.07;24.73;;;;;;;;;;4948251;29;20028;-77
2022/01/15 06:37:56;;;;;;;153.57;25.80;;;;;;;;;;4948434;29;20106;-77
2022/01/15 06:40:24;;;;;;;123.30;26.23;;;;;;;;;;4952842;29;20042;-79
2022/01/15 06:42:50;;;;;;;125.03;27.52;;;;;;;;;;4956375;29;20466;-80
2022/01/15 06:45:16;;;;;;;90.00;23.95;;;;;;;;;;4936618;29;20068;-79
2022/01/15 06:47:42;;;;;;;156.57;29.17;;;;;;;;;;4924355;29;20062;-81
2022/01/15 06:50:09;;;;;;;77.25;23.48;;;;;;;;;;4949086;29;20096;-79
2022/01/15 06:52:36;;;;;;;96.10;29.15;;;;;;;;;;4934351;29;20067;-80
2022/01/15 06:55:03;;;;;;;68.80;25.60;;;;;;;;;;4923204;29;20027;-80
2022/01/15 06:57:30;;;;;;;141.05;29.88;;;;;;;;;;4949397;29;20777;-79
2022/01/15 06:59:57;;;;;;;124.75;28.83;;;;;;;;;;4949320;29;20042;-80
2022/01/15 07:02:23;;;;;;;286.95;37.53;;;;;;;;;;4932659;29;20027;-80
2022/01/15 07:04:49;;;;;;;155.60;31.58;;;;;;;;;;4949309;29;20106;-80
2022/01/15 07:07:16;;;;;;;213.63;32.63;;;;;;;;;;4949794;29;20130;-80
2022/01/15 07:09:42;;;;;;;282.63;41.63;;;;;;;;;;4950335;29;20028;-80
2022/01/15 07:12:08;;;;;;;187.30;34.03;;;;;;;;;;4949726;29;20548;-81
2022/01/15 07:14:35;;;;;;;255.73;39.58;;;;;;;;;;4950194;29;20023;-80
2022/01/15 07:17:02;;;;;;;165.63;32.28;;;;;;;;;;4949481;29;20110;-81
2022/01/15 07:19:31;;;;;;;120.70;27.00;;;;;;;;;;4932652;29;20031;-81
2022/01/15 07:21:58;;;;;;;177.05;34.13;;;;;;;;;;4945308;29;20027;-80
2022/01/15 07:24:24;;;;;;;159.63;28.95;;;;;;;;;;4931291;29;20086;-81
2022/01/15 07:26:50;;;;;;;119.47;29.05;;;;;;;;;;4953155;29;20107;-81
2022/01/15 07:29:16;;;;;;;274.17;42.25;;;;;;;;;;4936671;29;20149;-80
2022/01/15 07:31:45;;;;;;;480.95;56.00;;;;;;;;;;4935355;29;20031;-80
2022/01/15 07:34:11;;;;;;;254.77;40.38;;;;;;;;;;4952809;29;20023;-81
2022/01/15 07:36:38;;;;;;;150.93;31.42;;;;;;;;;;4935540;29;20035;-82
2022/01/15 07:39:05;;;;;;;131.27;29.65;;;;;;;;;;4952878;29;20038;-81
2022/01/15 07:41:32;;;;;;;176.38;33.92;;;;;;;;;;4953357;29;20031;-82
2022/01/15 07:43:58;;;;;;;143.23;33.75;;;;;;;;;;4936452;29;20082;-81
2022/01/15 07:46:25;;;;;;;242.82;38.75;;;;;;;;;;4953926;29;20030;-81
2022/01/15 07:48:51;;;;;;;174.50;39.67;;;;;;;;;;4955189;29;20042;-82
2022/01/15 07:51:17;;;;;;;275.10;44.78;;;;;;;;;;4954210;29;20465;-82
2022/01/15 07:53:44;;;;;;;308.33;49.78;;;;;;;;;;4954798;29;20470;-81
2022/01/15 07:56:11;;;;;;;190.55;37.00;;;;;;;;;;4955345;29;20054;-82
2022/01/15 07:58:37;;;;;;;157.32;37.28;;;;;;;;;;4933305;29;20398;-81
2022/01/15 08:01:05;;;;;;;234.80;42.50;;;;;;;;;;4937602;29;20071;-82
2022/01/15 08:03:32;;;;;;;261.70;46.50;;;;;;;;;;4951316;29;20053;-81
2022/01/15 08:06:04;;;;;;;228.75;39.90;;;;;;;;;;4952858;29;20140;-80
2022/01/15 08:08:33;;;;;;;280.27;40.95;;;;;;;;;;4939654;29;20024;-80
2022/01/15 08:10:59;;;;;;;160.60;35.22;;;;;;;;;;4956078;29;20505;-80
2022/01/15 08:13:26;;;;;;;177.75;38.63;;;;;;;;;;4956452;29;20110;-79
2022/01/15 08:15:52;;;;;;;109.72;32.42;;;;;;;;;;4939641;29;20114;-80
2022/01/15 08:18:19;;;;;;;139.95;34.03;;;;;;;;;;4957996;29;20020;-80
2022/01/15 08:20:45;;;;;;;111.68;31.15;;;;;;;;;;4956432;28;20034;-82
2022/01/15 08:23:11;;;;;;;313.45;48.63;;;;;;;;;;4955566;29;20094;-80
2022/01/15 08:25:40;;;;;;;391.80;47.97;;;;;;;;;;4938490;29;20024;-78
2022/01/15 08:28:06;;;;;;;137.23;36.35;;;;;;;;;;4939843;29;20138;-80
2022/01/15 08:30:33;;;;;;;194.95;42.28;;;;;;;;;;4939868;29;20170;-80
2022/01/15 08:32:59;;;;;;;459.52;56.00;;;;;;;;;;4956831;28;20100;-80
2022/01/15 08:35:26;;;;;;;174.82;37.90;;;;;;;;;;4959715;29;20038;-81
2022/01/15 08:37:54;;;;;;;271.30;48.58;;;;;;;;;;4959720;29;20462;-78
2022/01/15 08:40:20;;;;;;;285.23;49.03;;;;;;;;;;4961424;29;20374;-81
2022/01/15 08:42:47;;;;;;;171.48;35.17;;;;;;;;;;4954239;29;20031;-76
2022/01/15 08:45:14;;;;;;;226.52;44.58;;;;;;;;;;4951551;29;20508;-78
2022/01/15 08:47:40;;;;;;;302.38;46.10;;;;;;;;;;4954953;29;20035;-77
2022/01/15 08:50:08;;;;;;;140.40;35.92;;;;;;;;;;4953252;29;20059;-77
2022/01/15 08:52:34;;;;;;;253.35;45.42;;;;;;;;;;4922323;29;20120;-77
2022/01/15 08:55:00;;;;;;;273.33;43.00;;;;;;;;;;4953594;29;20046;-76
2022/01/15 08:57:26;;;;;;;272.08;45.30;;;;;;;;;;4955667;29;20138;-80
2022/01/15 08:59:53;;;;;;;214.18;37.08;;;;;;;;;;4938044;29;20143;-78
2022/01/15 09:02:19;;;;;;;145.68;35.00;;;;;;;;;;4938660;29;20417;-78
2022/01/15 09:04:45;;;;;;;586.78;65.47;;;;;;;;;;4956071;29;20019;-79
2022/01/15 09:07:12;;;;;;;198.02;41.10;;;;;;;;;;4955402;29;20027;-77
2022/01/15 09:09:38;;;;;;;321.23;52.05;;;;;;;;;;4954655;29;20106;-78
2022/01/15 09:12:04;;;;;;;475.13;62.58;;;;;;;;;;4938262;29;20119;-75
2022/01/15 09:14:30;;;;;;;161.43;39.03;;;;;;;;;;4956530;29;20027;-80
2022/01/15 09:16:56;;;;;;;218.65;47.38;;;;;;;;;;4963337;28;20062;-83
2022/01/15 09:19:24;;;;;;;313.15;46.55;;;;;;;;;;4964232;29;20546;-83
2022/01/15 09:21:50;;;;;;;246.30;45.83;;;;;;;;;;4947577;29;20027;-82
2022/01/15 09:24:17;;;;;;;179.02;39.00;;;;;;;;;;4967596;29;20023;-80
2022/01/15 09:32:02;;;;;;;129.38;32.08;;;;;;;;;;4966211;28;20066;-81
2022/01/15 09:34:28;;;;;;;183.93;36.75;;;;;;;;;;4965889;29;20052;-82
2022/01/15 09:36:55;;;;;;;151.98;39.20;;;;;;;;;;4968629;28;20013;-81
2022/01/15 09:39:23;;;;;;;473.70;58.13;;;;;;;;;;4967952;29;20019;-83
2022/01/15 09:41:54;;;;;;;228.95;46.78;;;;;;;;;;4969180;28;20498;-77
2022/01/15 09:44:22;;;;;;;270.10;49.28;;;;;;;;;;4954001;28;20027;-78
2022/01/15 09:46:50;;;;;;;392.65;53.50;;;;;;;;;;4964490;29;20024;-82
2022/01/15 09:49:16;;;;;;;399.40;46.75;;;;;;;;;;4965495;29;20028;-81
2022/01/15 09:51:43;;;;;;;264.33;39.08;;;;;;;;;;4948616;28;20047;-82
2022/01/15 09:54:10;;;;;;;309.92;44.38;;;;;;;;;;4967781;28;20039;-82
2022/01/15 09:56:37;;;;;;;97.05;31.17;;;;;;;;;;4951053;29;20063;-82
2022/01/15 09:59:05;;;;;;;333.17;45.75;;;;;;;;;;4949091;29;20023;-81
2022/01/15 10:01:31;;;;;;;399.33;49.67;;;;;;;;;;4962713;29;20461;-77
2022/01/15 10:04:00;;;;;;;210.48;37.13;;;;;;;;;;4952804;29;20385;-78
2022/01/15 10:06:27;;;;;;;153.75;34.60;;;;;;;;;;4964952;29;20047;-82
2022/01/15 10:09:07;;;;;;;306.00;44.92;;;;;;;;;;4966311;29;20036;-82
2022/01/15 10:11:47;;;;;;;164.20;39.97;;;;;;;;;;4966325;29;20055;-82
2022/01/15 10:14:13;;;;;;;;;;;;;;;;;;4968211;29;20024;-82
2022/01/15 10:16:39;;;;;;;143.25;31.85;;;;;;;;;;4967163;29;19917;-81
2022/01/15 10:19:23;;;;;;;306.25;44.17;;;;;;;;;;4966071;29;20055;-80
2022/01/15 10:22:04;;;;;;;272.38;41.15;;;;;;;;;;4959942;28;20106;-76
2022/01/15 10:24:30;;;;;;;365.73;49.45;;;;;;;;;;4952817;29;20366;-76
2022/01/15 10:26:56;;;;;;;111.38;26.50;;;;;;;;;;4936390;29;20118;-74
2022/01/15 10:29:22;;;;;;;97.32;31.15;;;;;;;;;;4952608;29;20073;-77
2022/01/15 10:31:48;;;;;;;369.83;53.72;;;;;;;;;;4956429;29;20028;-80
2022/01/15 10:34:28;;;;;;;156.32;36.00;;;;;;;;;;4958256;29;20463;-79
2022/01/15 10:37:07;;;;;;;225.30;42.35;;;;;;;;;;4943149;29;20125;-79
2022/01/15 10:39:34;;;;;;;320.43;43.90;;;;;;;;;;4943069;29;20043;-80
2022/01/15 10:42:01;;;;;;;180.63;38.15;;;;;;;;;;4963691;29;20015;-80
2022/01/15 10:44:32;;;;;;;263.85;40.95;;;;;;;;;;4961517;29;20051;-80
2022/01/15 10:47:17;;;;;;;235.00;38.38;;;;;;;;;;4939431;29;20059;-78
2022/01/15 10:49:43;;;;;;;159.63;38.20;;;;;;;;;;4956161;29;20031;-82
2022/01/15 10:52:14;;;;;;;207.63;37.63;;;;;;;;;;4956835;29;20110;-79
2022/01/15 10:54:57;;;;;;;235.80;41.28;;;;;;;;;;4960546;29;20327;-81
2022/01/15 10:57:26;;;;;;;115.35;35.53;;;;;;;;;;4960507;29;20047;-80
2022/01/15 10:59:56;;;;;;;287.98;48.47;;;;;;;;;;4943752;29;20088;-79
2022/01/15 11:02:23;;;;;;;68.63;24.17;;;;;;;;;;4960302;29;20113;-81
2022/01/15 11:04:50;;;;;;;322.50;46.22;;;;;;;;;;4958178;29;20047;-79
2022/01/15 11:07:17;;;;;;;144.48;32.55;;;;;;;;;;4934854;29;20130;-79
2022/01/15 11:09:45;;;;;;;113.03;27.55;;;;;;;;;;4940819;29;20034;-79
2022/01/15 11:12:14;;;;;;;105.88;29.63;;;;;;;;;;4936514;29;20062;-79
2022/01/15 11:14:40;;;;;;;80.35;23.08;;;;;;;;;;4954066;29;20446;-80
2022/01/15 11:17:07;;;;;;;100.10;26.80;;;;;;;;;;4954912;29;20452;-78
2022/01/15 11:19:34;;;;;;;188.00;31.00;;;;;;;;;;4954733;29;20365;-79
2022/01/15 11:22:00;;;;;;;156.27;30.80;;;;;;;;;;4952969;28;20453;-78
2022/01/15 11:24:26;;;;;;;268.33;41.03;;;;;;;;;;4953103;29;20034;-79
2022/01/15 11:26:57;;;;;;;191.35;33.97;;;;;;;;;;4953483;29;20031;-77
2022/01/15 11:29:25;;;;;;;105.53;29.42;;;;;;;;;;4952780;29;20029;-78
2022/01/15 11:31:56;;;;;;;174.20;31.17;;;;;;;;;;4951896;29;20054;-77
2022/01/15 11:34:23;;;;;;;110.75;29.20;;;;;;;;;;4951218;29;20027;-77
2022/01/15 11:36:50;;;;;;;207.57;35.35;;;;;;;;;;4952100;29;20051;-78
2022/01/15 11:39:20;;;;;;;107.03;28.70;;;;;;;;;;4952979;29;20438;-79
2022/01/15 11:41:49;;;;;;;396.90;49.90;;;;;;;;;;4951110;29;20082;-77
2022/01/15 11:44:18;;;;;;;212.30;37.83;;;;;;;;;;4951980;29;20046;-78
2022/01/15 11:46:51;;;;;;;241.65;34.67;;;;;;;;;;4957737;29;20098;-78
2022/01/15 11:49:26;;;;;;;76.70;25.33;;;;;;;;;;4955990;29;20055;-77
2022/01/15 11:51:56;;;;;;;276.42;39.78;;;;;;;;;;4957753;29;20114;-76
2022/01/15 11:54:23;;;;;;;167.35;32.00;;;;;;;;;;4940239;29;20027;-77
2022/01/15 11:56:49;;;;;;;125.85;28.95;;;;;;;;;;4962325;29;20058;-77
2022/01/15 11:59:24;;;;;;;232.90;36.75;;;;;;;;;;4963502;29;20031;-79
2022/01/15 12:01:51;;;;;;;127.00;27.77;;;;;;;;;;4950060;29;20035;-77
2022/01/15 12:04:29;;;;;;;479.17;52.92;;;;;;;;;;4962923;29;20027;-77
2022/01/15 12:07:07;;;;;;;109.22;30.17;;;;;;;;;;4965483;28;20023;-77
2022/01/15 12:09:49;;;;;;;107.43;27.05;;;;;;;;;;4957973;29;20031;-75
2022/01/15 12:12:18;;;;;;;92.03;26.52;;;;;;;;;;4954638;29;20023;-77
2022/01/15 12:14:51;;;;;;;59.92;22.67;;;;;;;;;;4936914;29;20034;-77
2022/01/15 12:17:25;;;;;;;212.35;33.67;;;;;;;;;;4954604;29;20115;-78
2022/01/15 12:19:52;;;;;;;169.18;30.58;;;;;;;;;;4935811;29;20063;-79
2022/01/15 12:22:41;;;;;;;101.20;26.73;;;;;;;;;;4952094;28;20065;-77
2022/01/15 12:25:11;;;;;;;195.77;33.33;;;;;;;;;;4933431;29;20869;-80
2022/01/15 12:27:37;;;;;;;;;;;;;;;;;;4933316;29;20493;-79
2022/01/15 12:30:06;;;;;;;64.88;24.25;;;;;;;;;;4950946;29;20033;-77
2022/01/15 12:32:36;;;;;;;125.20;27.55;;;;;;;;;;4950086;29;20022;-79
2022/01/15 12:35:02;;;;;;;116.60;27.90;;;;;;;;;;4949324;29;20042;-79
2022/01/15 12:37:28;;;;;;;93.75;26.25;;;;;;;;;;4949692;29;20534;-79
2022/01/15 12:39:55;;;;;;;104.38;24.98;;;;;;;;;;4949472;29;20046;-78
2022/01/15 12:42:28;;;;;;;113.72;31.42;;;;;;;;;;4948456;29;20042;-79
2022/01/15 12:44:55;;;;;;;207.43;35.83;;;;;;;;;;4949999;29;20023;-79
2022/01/15 12:47:22;;;;;;;132.40;32.85;;;;;;;;;;4948881;29;20127;-80
2022/01/15 12:49:50;;;;;;;149.50;31.15;;;;;;;;;;4949585;29;20891;-79
2022/01/15 12:52:22;;;;;;;198.38;34.55;;;;;;;;;;4948253;29;20078;-77
2022/01/15 12:54:49;;;;;;;375.83;49.67;;;;;;;;;;4930499;29;20754;-78
2022/01/15 12:57:35;;;;;;;209.93;38.92;;;;;;;;;;4930749;29;20035;-78
2022/01/15 13:00:01;;;;;;;423.98;57.90;;;;;;;;;;4949545;29;20094;-78
2022/01/15 13:02:29;;;;;;;210.82;40.95;;;;;;;;;;4932111;29;20386;-78
2022/01/15 13:04:55;;;;;;;204.90;41.17;;;;;;;;;;4932345;29;20111;-76
2022/01/15 13:07:21;;;;;;;389.52;52.35;;;;;;;;;;4948954;29;20031;-77
2022/01/15 13:09:47;;;;;;;357.77;47.13;;;;;;;;;;4949345;29;20034;-78
2022/01/15 13:12:13;;;;;;;160.80;40.08;;;;;;;;;;4931701;29;20509;-78
2022/01/15 13:14:43;;;;;;;362.05;52.80;;;;;;;;;;4950222;29;20470;-79
2022/01/15 13:17:23;;;;;;;143.95;38.40;;;;;;;;;;4949593;29;20047;-79
2022/01/15 13:19:49;;;;;;;118.40;34.90;;;;;;;;;;4931695;29;20043;-78
2022/01/15 13:22:19;;;;;;;152.43;37.63;;;;;;;;;;4921183;29;20074;-79
2022/01/15 13:24:45;;;;;;;;;;;;;;;;;;4942888;29;20481;-79
2022/01/15 13:27:11;;;;;;;153.30;36.33;;;;;;;;;;4953009;29;19945;-80
2022/01/15 13:29:38;;;;;;;253.18;43.17;;;;;;;;;;4953249;29;20110;-78
2022/01/15 13:32:07;;;;;;;120.00;37.33;;;;;;;;;;4935462;29;20086;-78
2022/01/15 13:34:34;;;;;;;155.77;40.33;;;;;;;;;;4935502;29;20024;-79
2022/01/15 13:37:12;;;;;;;104.55;32.30;;;;;;;;;;4936123;29;20474;-79
2022/01/15 13:39:39;;;;;;;158.68;39.53;;;;;;;;;;4934728;29;20042;-79
2022/01/15 13:42:05;;;;;;;262.38;43.42;;;;;;;;;;4935892;29;20035;-78
2022/01/15 13:44:35;;;;;;;134.50;39.63;;;;;;;;;;4953035;29;20031;-78
2022/01/15 13:47:01;;;;;;;;;;;;;;;;;;4953068;29;20137;-77
2022/01/15 13:53:04;;;;;;;138.55;33.85;;;;;;;;;;4952324;29;19918;-78
2022/01/15 13:55:11;;;;;;;168.35;36.85;;;;;;;;;;4950670;29;20864;-78
2022/01/15 13:57:39;;;;;;;140.82;37.00;;;;;;;;;;4952148;29;20033;-78
2022/01/15 14:00:16;;;;;;;105.25;34.85;;;;;;;;;;4934687;29;20039;-78
2022/01/15 14:02:44;;;;;;;140.38;36.33;;;;;;;;;;4934320;29;20095;-77
2022/01/15 14:05:15;;;;;;;242.18;40.72;;;;;;;;;;4951609;29;20020;-78
2022/01/15 14:07:41;;;;;;;119.15;35.80;;;;;;;;;;4952644;29;20023;-78
2022/01/15 14:10:11;;;;;;;119.30;34.70;;;;;;;;;;4934990;29;20062;-78
2022/01/15 14:12:40;;;;;;;183.30;39.38;;;;;;;;;;4935327;29;20031;-77
2022/01/15 14:15:14;;;;;;;97.10;30.58;;;;;;;;;;4949288;29;20079;-79
2022/01/15 14:17:42;;;;;;;186.52;38.50;;;;;;;;;;4943143;29;20028;-79
2022/01/15 14:22:42;;;;;;;86.80;32.22;;;;;;;;;;4949072;29;20035;-78
2022/01/15 14:25:19;;;;;;;82.63;32.70;;;;;;;;;;4951615;29;20027;-78
2022/01/15 14:27:47;;;;;;;120.25;38.42;;;;;;;;;;4951978;29;20126;-79
2022/01/15 14:30:13;;;;;;;195.75;39.08;;;;;;;;;;4934210;29;20031;-79
2022/01/15 14:32:39;;;;;;;148.40;36.63;;;;;;;;;;4945850;29;20059;-78
2022/01/15 14:35:05;;;;;;;168.27;38.92;;;;;;;;;;4924198;29;20024;-78
2022/01/15 14:37:32;;;;;;;93.25;35.72;;;;;;;;;;4951604;29;20103;-78
2022/01/15 14:39:59;;;;;;;113.65;38.72;;;;;;;;;;4950603;29;20102;-78
2022/01/15 14:42:26;;;;;;;94.53;35.05;;;;;;;;;;4933648;29;20193;-78
2022/01/15 14:44:52;;;;;;;122.03;39.45;;;;;;;;;;4950362;29;20011;-79
2022/01/15 14:47:18;;;;;;;192.50;43.00;;;;;;;;;;4950870;29;20058;-78
2022/01/15 14:49:44;;;;;;;128.70;39.78;;;;;;;;;;4950927;29;20055;-78
2022/01/15 14:52:13;;;;;;;127.30;35.92;;;;;;;;;;4951043;29;20047;-78
2022/01/15 14:54:41;;;;;;;124.72;39.47;;;;;;;;;;4952124;29;20031;-78
2022/01/15 14:57:07;;;;;;;79.68;31.58;;;;;;;;;;4950374;29;20114;-79
2022/01/15 14:59:33;;;;;;;89.68;31.35;;;;;;;;;;4934181;29;20094;-79
2022/01/15 15:02:00;;;;;;;72.03;31.42;;;;;;;;;;4951360;29;20788;-80
2022/01/15 15:04:27;;;;;;;82.70;34.78;;;;;;;;;;4951901;29;20035;-79
2022/01/15 15:06:53;;;;;;;109.07;33.85;;;;;;;;;;4951260;29;20030;-80
2022/01/15 15:09:19;;;;;;;95.15;35.40;;;;;;;;;;4950906;29;20026;-79
2022/01/15 15:11:46;;;;;;;94.28;36.00;;;;;;;;;;4933734;29;20031;-80